Sunday, March 24, 2019, 7:59 PM EDT
Back to Local

KTAN, Taunton Municipal Airport

Location: East Taunton, MA, United States Lat: 41.883
Local Time: 7:59 PM EDT (23:59 GMT) Lon: -71.017
Time Zone: US/Eastern Elev: 42 ft

Show me the last for .
Show Decoded

2019-03-24 18:52 METAR KTAN 242252Z AUTO 23007KT 10SM CLR 08/M04 A2997 RMK AO2 SLP147 T00831039 =
2019-03-24 17:52 METAR KTAN 242152Z AUTO 21009G16KT 10SM CLR 09/M05 A2996 RMK AO2 SLP144
                 T00891050 =
2019-03-24 16:52 METAR KTAN 242052Z AUTO 21011G21KT 10SM CLR 09/M05 A2997 RMK AO2 SLP147
                 T00941050 56013 =
2019-03-24 15:52 METAR KTAN 241952Z AUTO 21009G15KT 10SM CLR 12/M04 A2997 RMK AO2 SLP147
                 T01171039 =
2019-03-24 14:52 METAR KTAN 241852Z AUTO 21008G17KT 10SM CLR 14/M09 A2998 RMK AO2 SLP150
                 T01441094 =
2019-03-24 13:52 METAR KTAN 241752Z AUTO 25011G16KT 10SM CLR 14/M10 A3000 RMK AO2 SLP160
                 T01441100 10144 20017 56026 =
2019-03-24 12:52 METAR KTAN 241652Z AUTO 25012G17KT 10SM CLR 13/M09 A3003 RMK AO2 SLP169
                 T01331089 =
2019-03-24 11:52 METAR KTAN 241552Z AUTO 28007KT 220V320 10SM CLR 11/M08 A3005 RMK AO2 SLP175
                 T01061083 =
2019-03-24 10:52 METAR KTAN 241452Z AUTO 27010KT 10SM CLR 08/M08 A3008 RMK AO2 SLP186 T00831078
                 56002 =
2019-03-24 09:52 METAR KTAN 241352Z AUTO 29005KT 10SM CLR 07/M08 A3008 RMK AO2 SLP186 T00721078 =
2019-03-24 08:52 METAR KTAN 241252Z AUTO 25008KT 10SM CLR 04/M08 A3008 RMK AO2 SLP186 T00391078 =
2019-03-24 07:52 METAR KTAN 241152Z AUTO 26004KT 10SM CLR 02/M08 A3008 RMK AO2 SLP187 T00171078
                 10017 21039 51013 =
2019-03-24 06:52 METAR KTAN 241052Z AUTO 21003KT 10SM CLR M03/M09 A3007 RMK AO2 SLP182 T10331089
                 =
2019-03-24 05:52 METAR KTAN 240952Z AUTO 22003KT 10SM CLR M01/M11 A3007 RMK AO2 SLP182 T10061106
                 =
2019-03-24 04:52 METAR KTAN 240852Z AUTO 23005KT 10SM CLR M01/M11 A3005 RMK AO2 SLP174 T10061106
                 53007 =
2019-03-24 03:52 METAR KTAN 240752Z AUTO 00000KT 10SM CLR M01/M11 A3004 RMK AO2 SLP172 T10111106
                 =
2019-03-24 02:52 METAR KTAN 240652Z AUTO 25005KT 10SM CLR 00/M11 A3003 RMK AO2 SLP168 T00001106 =
2019-03-24 01:52 METAR KTAN 240552Z AUTO 28005KT 10SM CLR 01/M11 A3002 RMK AO2 SLP167 T00061106
                 10050 20006 53021 =
2019-03-24 00:52 METAR KTAN 240452Z AUTO 29008G18KT 10SM CLR 01/M10 A3000 RMK AO2 SLP159
                 T00111100 400940000 =
2019-03-23 23:52 METAR KTAN 240352Z AUTO 28009KT 10SM CLR 02/M10 A2998 RMK AO2 SLP153 T00171100 =
2019-03-23 22:52 METAR KTAN 240252Z AUTO 28007KT 10SM CLR 02/M09 A2996 RMK AO2 SLP146 T00171094
                 51035 =
2019-03-23 21:52 METAR KTAN 240152Z AUTO 30008G16KT 10SM CLR 03/M09 A2994 RMK AO2 SLP139
                 T00281094 =
2019-03-23 20:52 METAR KTAN 240052Z AUTO 30007G15KT 10SM CLR 04/M08 A2991 RMK AO2 SLP128
                 T00391083 =

Support USWX by starting your Amazon purchase here.